Guasti, California
Current Conditions -  °F | °C
As of 10:53 AM on Saturday 20 Dec 2014 (Local Time) from KONT Reporting Station
Broken Clouds Broken Clouds  
Wind Chill: 57°   Ceiling: 24000
Heat Index: 57°   Visibility: 8mi
Dew Point: 44°   Wind: 0mph
Humidity: 62%   Direction: NA
Pressure: 30.19"   Gusts: NA
Location:  34.07°N, 117.59°W
Report Text: KONT 201853Z 00000KT 8SM BKN240 14/07 A3019 RMK AO2 SLP221 T01390067
Loading
Personal Weather Stations






























Interactive Weather Map New forecast layout! Learn more

10-Day Weather Forecast

Advertisements
Track Severe Weather on mobile